Time;durP1;ratioP1;P1;durP2;ratioP2;P2;SDS_P1;SDS_P2;PMS_P1;PMS_P2;Temp;Humidity;BMP_temperature;BMP_pressure;BME280_temperature;BME280_humidity;BME280_pressure;Samples;Min_cycle;Max_cycle;Signal;HPM_P1;HPM_P2
2023/03/05 00:01:36;;;;;;;17.63;3.20;;;3.30;99.90;;;;;;5041563;28;20025;-72
2023/03/05 00:04:04;;;;;;;16.83;3.35;;;3.30;99.90;;;;;;5043127;28;20033;-71
2023/03/05 00:06:31;;;;;;;21.65;3.60;;;3.30;99.90;;;;;;5041043;28;20030;-73
2023/03/05 00:08:57;;;;;;;16.45;3.15;;;3.30;99.90;;;;;;5041986;28;20078;-73
2023/03/05 00:11:26;;;;;;;21.15;3.80;;;3.40;99.90;;;;;;5041957;28;20072;-74
2023/03/05 00:13:52;;;;;;;12.27;2.83;;;3.30;99.90;;;;;;5042399;28;20489;-74
2023/03/05 00:16:19;;;;;;;20.25;3.80;;;3.30;99.90;;;;;;5041565;28;20120;-74
2023/03/05 00:18:45;;;;;;;19.70;3.30;;;3.30;99.90;;;;;;5042714;28;20033;-74
2023/03/05 00:21:35;;;;;;;13.30;4.15;;;3.20;99.90;;;;;;5042884;28;20080;-74
2023/03/05 00:24:03;;;;;;;18.08;3.55;;;3.20;99.90;;;;;;5046932;28;20041;-75
2023/03/05 00:26:29;;;;;;;15.48;2.85;;;3.10;99.90;;;;;;5042001;28;20048;-72
2023/03/05 00:28:56;;;;;;;11.63;2.25;;;3.10;99.90;;;;;;5042572;28;20634;-74
2023/03/05 00:31:29;;;;;;;15.75;2.88;;;3.10;99.90;;;;;;5040964;28;20030;-73
2023/03/05 00:33:56;;;;;;;15.18;2.83;;;3.10;99.90;;;;;;5042237;28;20477;-74
2023/03/05 00:36:24;;;;;;;18.10;2.55;;;3.10;99.90;;;;;;5040656;28;20088;-75
2023/03/05 00:38:50;;;;;;;13.68;2.60;;;3.10;99.90;;;;;;5042547;28;20077;-75
2023/03/05 00:41:16;;;;;;;9.75;1.92;;;3.00;99.90;;;;;;5042487;28;20064;-74
2023/03/05 00:43:42;;;;;;;12.32;1.75;;;3.00;99.90;;;;;;5042590;28;20075;-74
2023/03/05 00:46:07;;;;;;;12.13;1.83;;;2.90;99.90;;;;;;5041165;28;20045;-75
2023/03/05 00:48:33;;;;;;;13.30;1.80;;;3.00;99.90;;;;;;5042253;28;20124;-75
2023/03/05 00:50:59;;;;;;;8.07;1.50;;;2.90;99.90;;;;;;5040111;28;20029;-74
2023/03/05 00:53:24;;;;;;;8.32;1.70;;;3.00;99.90;;;;;;5041028;28;20022;-75
2023/03/05 00:55:50;;;;;;;12.95;2.15;;;3.00;99.90;;;;;;5041979;28;20044;-77
2023/03/05 00:58:15;;;;;;;16.27;2.42;;;3.00;99.90;;;;;;5042102;28;20033;-74
2023/03/05 01:00:41;;;;;;;9.85;1.95;;;3.00;99.90;;;;;;5041630;28;20052;-75
2023/03/05 01:03:07;;;;;;;8.93;1.88;;;3.00;99.90;;;;;;5042140;28;20087;-75
2023/03/05 01:05:32;;;;;;;13.73;2.50;;;3.00;99.90;;;;;;5041860;28;20029;-73
2023/03/05 01:07:58;;;;;;;14.35;2.35;;;3.00;99.90;;;;;;5040808;28;20025;-74
2023/03/05 01:10:25;;;;;;;13.27;2.63;;;2.90;99.90;;;;;;5041379;28;20029;-75
2023/03/05 01:12:52;;;;;;;9.80;2.30;;;2.90;99.90;;;;;;5041916;28;20061;-75
2023/03/05 01:15:17;;;;;;;10.43;2.17;;;2.80;99.90;;;;;;5041553;28;20049;-73
2023/03/05 01:17:43;;;;;;;11.52;2.13;;;2.80;99.90;;;;;;5040799;28;20383;-74
2023/03/05 01:20:12;;;;;;;11.13;2.28;;;2.80;99.90;;;;;;5041770;28;20156;-73
2023/03/05 01:22:38;;;;;;;12.68;2.10;;;2.70;99.90;;;;;;5041349;28;20018;-75
2023/03/05 01:25:04;;;;;;;7.85;1.77;;;2.80;99.90;;;;;;5040079;28;20041;-75
2023/03/05 01:27:29;;;;;;;18.48;2.40;;;2.80;99.90;;;;;;5040395;28;20049;-74
2023/03/05 01:29:55;;;;;;;11.00;1.83;;;2.80;99.90;;;;;;5041502;28;20087;-75
2023/03/05 01:32:20;;;;;;;8.60;1.85;;;2.80;99.90;;;;;;5041416;28;20025;-74
2023/03/05 01:34:46;;;;;;;12.25;1.73;;;2.80;99.90;;;;;;5041552;28;20033;-76
2023/03/05 01:37:11;;;;;;;11.10;1.95;;;2.80;99.90;;;;;;5040650;28;20029;-72
2023/03/05 01:39:37;;;;;;;11.02;1.92;;;2.80;99.90;;;;;;5041558;28;20075;-74
2023/03/05 01:42:03;;;;;;;8.88;1.83;;;2.80;99.90;;;;;;5040116;28;20018;-74
2023/03/05 01:44:29;;;;;;;5.82;1.35;;;2.80;99.90;;;;;;5041025;28;20029;-73
2023/03/05 01:46:55;;;;;;;5.68;1.60;;;2.70;99.90;;;;;;5041493;28;20081;-73
2023/03/05 01:49:27;;;;;;;7.05;1.77;;;2.70;99.90;;;;;;5041129;28;20048;-71
2023/03/05 01:52:04;;;;;;;7.45;1.55;;;2.70;99.90;;;;;;5039785;28;20027;-74
2023/03/05 01:54:35;;;;;;;9.20;1.77;;;2.60;99.90;;;;;;5039839;28;20501;-76
2023/03/05 01:57:08;;;;;;;7.95;1.98;;;2.60;99.90;;;;;;5040765;28;20026;-73
2023/03/05 01:59:35;;;;;;;6.35;1.77;;;2.50;99.90;;;;;;5040796;28;20034;-74
2023/03/05 02:02:02;;;;;;;10.63;2.33;;;2.50;99.90;;;;;;5038970;28;20052;-73
2023/03/05 02:04:36;;;;;;;9.00;1.70;;;2.50;99.90;;;;;;5039917;28;20021;-75
2023/03/05 02:07:02;;;;;;;13.00;2.13;;;2.50;99.90;;;;;;5040896;28;20496;-72
2023/03/05 02:09:28;;;;;;;11.70;2.17;;;2.40;99.90;;;;;;5039490;28;20032;-73
2023/03/05 02:11:55;;;;;;;10.27;1.52;;;2.40;99.90;;;;;;5041135;28;20105;-73
2023/03/05 02:14:23;;;;;;;9.38;1.92;;;2.40;99.90;;;;;;5039593;28;20036;-74
2023/03/05 02:16:49;;;;;;;6.82;2.22;;;2.40;99.90;;;;;;5040067;28;20072;-73
2023/03/05 02:19:14;;;;;;;7.28;1.80;;;2.40;99.90;;;;;;5041153;28;20025;-74
2023/03/05 02:21:42;;;;;;;10.20;2.08;;;2.40;99.90;;;;;;5038880;28;20027;-74
2023/03/05 02:24:11;;;;;;;8.23;2.17;;;2.40;99.90;;;;;;5041103;28;20033;-72
2023/03/05 02:26:37;;;;;;;9.35;2.17;;;2.50;99.90;;;;;;5040210;28;20038;-73
2023/03/05 02:29:06;;;;;;;11.95;2.33;;;2.40;99.90;;;;;;5040717;28;20108;-73
2023/03/05 02:31:32;;;;;;;11.57;2.10;;;2.50;99.90;;;;;;5042306;28;20020;-72
2023/03/05 02:33:58;;;;;;;13.70;2.03;;;2.40;99.90;;;;;;5044730;28;20057;-73
2023/03/05 02:36:24;;;;;;;10.55;2.10;;;2.40;99.90;;;;;;5044186;28;20029;-74
2023/03/05 02:38:51;;;;;;;15.52;2.50;;;2.40;99.90;;;;;;5045063;28;20026;-72
2023/03/05 02:41:17;;;;;;;8.52;2.25;;;2.40;99.90;;;;;;5043274;28;20114;-73
2023/03/05 02:43:43;;;;;;;9.35;1.90;;;2.40;99.90;;;;;;5043795;28;20029;-71
2023/03/05 02:46:08;;;;;;;9.30;1.73;;;2.40;99.90;;;;;;5044556;28;20028;-74
2023/03/05 02:48:34;;;;;;;9.05;1.92;;;2.40;99.90;;;;;;5044261;28;20479;-73
2023/03/05 02:51:01;;;;;;;9.90;1.95;;;2.30;99.90;;;;;;5044738;28;20886;-74
2023/03/05 02:53:27;;;;;;;5.78;1.67;;;2.30;99.90;;;;;;5043306;28;20018;-75
2023/03/05 02:55:52;;;;;;;5.25;1.88;;;2.30;99.90;;;;;;5044227;28;20076;-73
2023/03/05 02:58:18;;;;;;;8.27;1.65;;;2.30;99.90;;;;;;5044480;28;20057;-75
2023/03/05 03:00:45;;;;;;;10.82;1.92;;;2.30;99.90;;;;;;5044492;28;20033;-73
2023/03/05 03:03:11;;;;;;;5.65;1.98;;;2.30;99.90;;;;;;5043122;28;20022;-73
2023/03/05 03:05:37;;;;;;;7.32;2.00;;;2.30;99.90;;;;;;5043132;28;20036;-72
2023/03/05 03:08:03;;;;;;;10.35;2.05;;;2.30;99.90;;;;;;5044350;28;20030;-73
2023/03/05 03:10:28;;;;;;;7.50;1.73;;;2.30;99.90;;;;;;5043962;28;20089;-74
2023/03/05 03:12:54;;;;;;;5.63;1.63;;;2.30;99.90;;;;;;5044163;28;20017;-73
2023/03/05 03:15:21;;;;;;;7.20;1.60;;;2.30;99.90;;;;;;5042698;28;20083;-73
2023/03/05 03:17:46;;;;;;;9.88;1.88;;;2.30;99.90;;;;;;5044361;28;20022;-75
2023/03/05 03:20:15;;;;;;;8.00;2.13;;;2.30;99.90;;;;;;5042575;28;20040;-73
2023/03/05 03:22:42;;;;;;;9.77;2.13;;;2.30;99.90;;;;;;5043964;28;20120;-74
2023/03/05 03:25:09;;;;;;;11.32;2.60;;;2.30;99.90;;;;;;5044147;28;20029;-73
2023/03/05 03:27:35;;;;;;;6.45;2.10;;;2.30;99.90;;;;;;5042761;28;20064;-73
2023/03/05 03:30:03;;;;;;;9.73;2.95;;;2.30;99.90;;;;;;5043990;28;20444;-74
2023/03/05 03:32:30;;;;;;;11.05;3.65;;;2.40;99.90;;;;;;5042554;28;20032;-75
2023/03/05 03:34:56;;;;;;;10.95;3.40;;;2.40;99.90;;;;;;5043801;28;20474;-74
2023/03/05 03:37:22;;;;;;;11.43;3.60;;;2.40;99.90;;;;;;5043494;28;20049;-72
2023/03/05 03:39:48;;;;;;;11.40;3.40;;;2.40;99.90;;;;;;5043233;28;20064;-75
2023/03/05 03:42:16;;;;;;;13.65;3.42;;;2.40;99.90;;;;;;5041785;28;20025;-74
2023/03/05 03:44:42;;;;;;;9.57;3.00;;;2.40;99.90;;;;;;5043236;28;20021;-75
2023/03/05 03:47:08;;;;;;;14.25;3.17;;;2.40;99.90;;;;;;5042535;28;20389;-73
2023/03/05 03:49:33;;;;;;;9.45;2.30;;;2.40;99.90;;;;;;5043638;28;20040;-75
2023/03/05 03:51:59;;;;;;;5.95;1.75;;;2.40;99.90;;;;;;5042153;28;20033;-76
2023/03/05 03:54:25;;;;;;;13.25;2.28;;;2.40;99.90;;;;;;5042018;28;20062;-75
2023/03/05 03:56:51;;;;;;;11.35;2.00;;;2.40;99.90;;;;;;5043401;28;20028;-74
2023/03/05 03:59:16;;;;;;;8.35;1.92;;;2.40;99.90;;;;;;5043402;28;20024;-75
2023/03/05 04:01:42;;;;;;;7.35;1.85;;;2.30;99.90;;;;;;5043357;28;20022;-76
2023/03/05 04:04:10;;;;;;;9.68;2.33;;;2.40;99.90;;;;;;5042058;28;20021;-75
2023/03/05 04:06:36;;;;;;;10.02;2.15;;;2.40;99.90;;;;;;5041390;28;20085;-75
2023/03/05 04:09:02;;;;;;;7.65;2.28;;;2.30;99.90;;;;;;5041740;28;20028;-74
2023/03/05 04:11:28;;;;;;;7.75;1.75;;;2.30;99.90;;;;;;5043096;28;20044;-74
2023/03/05 04:13:53;;;;;;;13.82;2.10;;;2.30;99.90;;;;;;5041739;28;20474;-71
2023/03/05 04:16:19;;;;;;;13.40;1.98;;;2.30;99.90;;;;;;5042851;28;20022;-75
2023/03/05 04:18:44;;;;;;;10.43;2.58;;;2.30;99.90;;;;;;5043307;28;20022;-74
2023/03/05 04:21:10;;;;;;;9.45;2.47;;;2.20;99.90;;;;;;5041609;28;20038;-73
2023/03/05 04:23:36;;;;;;;7.57;1.70;;;2.20;99.90;;;;;;5042949;28;20025;-75
2023/03/05 04:26:02;;;;;;;7.53;2.38;;;2.30;99.90;;;;;;5042599;28;20052;-74
2023/03/05 04:28:27;;;;;;;7.30;1.83;;;2.20;99.90;;;;;;5041141;28;20030;-74
2023/03/05 04:30:53;;;;;;;7.38;2.30;;;2.20;99.90;;;;;;5041365;28;20090;-73
2023/03/05 04:33:19;;;;;;;11.82;2.55;;;2.20;99.90;;;;;;5041519;28;20022;-74
2023/03/05 04:35:44;;;;;;;11.63;2.17;;;2.20;99.90;;;;;;5042362;28;20040;-75
2023/03/05 04:38:10;;;;;;;10.85;2.10;;;2.20;99.90;;;;;;5041593;28;20112;-73
2023/03/05 04:40:36;;;;;;;7.45;1.90;;;2.20;99.90;;;;;;5041091;28;20136;-75
2023/03/05 04:43:02;;;;;;;18.00;2.63;;;2.20;99.90;;;;;;5042716;28;20105;-74
2023/03/05 04:45:32;;;;;;;13.73;2.63;;;2.20;99.90;;;;;;5042144;28;20029;-74
2023/03/05 04:47:58;;;;;;;14.95;3.25;;;2.20;99.90;;;;;;5042209;28;20056;-74
2023/03/05 04:50:24;;;;;;;10.55;3.10;;;2.10;99.90;;;;;;5042280;28;20029;-75
2023/03/05 04:52:49;;;;;;;17.38;2.88;;;2.20;99.90;;;;;;5040852;28;20029;-73
2023/03/05 04:55:16;;;;;;;9.77;2.58;;;2.20;99.90;;;;;;5042267;28;20033;-72
2023/03/05 04:57:42;;;;;;;8.50;2.53;;;2.20;99.90;;;;;;5042189;28;20017;-74
2023/03/05 05:00:13;;;;;;;11.63;3.08;;;2.20;99.90;;;;;;5040942;28;20045;-74
2023/03/05 05:02:45;;;;;;;16.13;3.03;;;2.20;99.90;;;;;;5041876;28;20053;-75
2023/03/05 05:05:14;;;;;;;14.23;3.63;;;2.20;99.90;;;;;;5041616;28;20025;-73
2023/03/05 05:07:40;;;;;;;14.05;3.90;;;2.20;99.90;;;;;;5041867;28;20029;-74
2023/03/05 05:10:08;;;;;;;14.07;2.97;;;2.20;99.90;;;;;;5041918;28;20128;-72
2023/03/05 05:12:34;;;;;;;15.85;3.30;;;2.20;99.90;;;;;;5040220;28;20072;-72
2023/03/05 05:15:00;;;;;;;13.43;3.58;;;2.20;99.90;;;;;;5041862;28;20036;-72
2023/03/05 05:17:25;;;;;;;9.45;2.70;;;2.20;99.90;;;;;;5040637;28;20025;-72
2023/03/05 05:19:51;;;;;;;10.40;3.30;;;2.30;99.90;;;;;;5041760;28;20040;-73
2023/03/05 05:22:17;;;;;;;11.27;3.13;;;2.30;99.90;;;;;;5041982;28;20090;-74
2023/03/05 05:24:42;;;;;;;10.52;3.00;;;2.30;99.90;;;;;;5039962;28;20032;-75
2023/03/05 05:27:08;;;;;;;11.07;3.08;;;2.20;99.90;;;;;;5040229;28;20132;-74
2023/03/05 05:29:34;;;;;;;11.27;2.47;;;2.20;99.90;;;;;;5040432;28;20040;-75
2023/03/05 05:31:59;;;;;;;5.88;2.15;;;2.20;99.90;;;;;;5040494;28;20524;-74
2023/03/05 05:34:26;;;;;;;8.93;2.70;;;2.20;99.90;;;;;;5040113;28;20026;-74
2023/03/05 05:36:51;;;;;;;16.13;2.05;;;2.10;99.90;;;;;;5041862;28;20017;-74
2023/03/05 05:39:17;;;;;;;6.95;2.05;;;2.10;99.90;;;;;;5041592;28;20033;-75
2023/03/05 05:41:43;;;;;;;13.73;3.45;;;2.10;99.90;;;;;;5040295;28;20029;-76
2023/03/05 05:44:08;;;;;;;9.75;2.45;;;2.00;99.90;;;;;;5041732;28;20035;-74
2023/03/05 05:46:34;;;;;;;11.52;2.38;;;2.00;99.90;;;;;;5039990;28;20028;-72
2023/03/05 05:48:59;;;;;;;10.00;2.20;;;2.00;99.90;;;;;;5041564;28;20036;-74
2023/03/05 05:51:25;;;;;;;11.95;2.67;;;2.00;99.90;;;;;;5041033;28;20029;-73
2023/03/05 05:53:51;;;;;;;9.10;2.55;;;2.00;99.90;;;;;;5041580;28;20025;-75
2023/03/05 05:56:17;;;;;;;13.07;2.67;;;2.00;99.90;;;;;;5041473;28;20052;-74
2023/03/05 05:58:46;;;;;;;13.73;2.38;;;2.00;99.90;;;;;;5040017;28;20034;-73
2023/03/05 06:01:18;;;;;;;8.90;2.80;;;2.00;99.90;;;;;;5041451;28;20057;-75
2023/03/05 06:03:44;;;;;;;9.68;2.15;;;2.00;99.90;;;;;;5041821;28;20030;-75
2023/03/05 06:06:15;;;;;;;12.07;2.63;;;1.90;99.90;;;;;;5046024;28;20103;-74
2023/03/05 06:08:41;;;;;;;5.80;2.20;;;2.00;99.90;;;;;;5045254;28;20131;-75
2023/03/05 06:11:07;;;;;;;6.60;2.17;;;2.00;99.90;;;;;;5045340;28;20449;-75
2023/03/05 06:13:32;;;;;;;6.25;1.55;;;2.00;99.90;;;;;;5045397;28;20021;-76
2023/03/05 06:16:01;;;;;;;10.20;1.70;;;2.00;99.90;;;;;;5045048;28;20025;-74
2023/03/05 06:18:27;;;;;;;5.60;1.63;;;2.00;99.90;;;;;;5045073;28;20026;-73
2023/03/05 06:21:05;;;;;;;8.00;1.60;;;2.00;99.90;;;;;;5045049;28;20063;-74
2023/03/05 06:23:31;;;;;;;9.68;1.55;;;2.00;99.90;;;;;;5044024;28;20034;-75
2023/03/05 06:26:01;;;;;;;4.90;1.00;;;2.00;99.90;;;;;;5045147;28;20050;-77
2023/03/05 06:28:28;;;;;;;5.03;1.38;;;2.00;99.90;;;;;;5043509;28;20025;-77
2023/03/05 06:31:12;;;;;;;4.97;0.98;;;2.00;99.90;;;;;;5045174;28;20032;-74
2023/03/05 06:33:38;;;;;;;4.55;1.00;;;1.90;99.90;;;;;;5043712;28;20030;-75
2023/03/05 06:36:09;;;;;;;5.28;1.27;;;1.90;99.90;;;;;;5044773;28;20033;-77
2023/03/05 06:38:35;;;;;;;4.97;1.23;;;1.90;99.90;;;;;;5041192;28;20091;-75
2023/03/05 06:41:04;;;;;;;6.82;1.23;;;1.80;99.90;;;;;;5044331;28;20052;-75
2023/03/05 06:43:32;;;;;;;10.20;1.45;;;1.80;99.90;;;;;;5043059;28;20068;-76
2023/03/05 06:46:10;;;;;;;6.47;1.70;;;1.80;99.90;;;;;;5043514;28;20048;-75
2023/03/05 06:48:36;;;;;;;4.45;1.52;;;1.80;99.90;;;;;;5043842;28;20029;-76
2023/03/05 06:51:02;;;;;;;5.43;1.60;;;1.80;99.90;;;;;;5041975;28;20033;-74
2023/03/05 06:53:27;;;;;;;3.72;1.33;;;1.80;99.90;;;;;;5044403;28;20033;-74
2023/03/05 06:55:54;;;;;;;3.38;1.35;;;1.80;99.90;;;;;;5042887;28;20090;-75
2023/03/05 06:58:20;;;;;;;5.15;1.40;;;1.80;99.90;;;;;;5042299;28;20030;-74
2023/03/05 07:00:46;;;;;;;8.40;1.73;;;1.90;99.90;;;;;;5043544;28;20037;-76
2023/03/05 07:03:12;;;;;;;4.88;1.80;;;1.90;99.90;;;;;;5037829;28;20048;-74
2023/03/05 07:05:38;;;;;;;7.57;2.00;;;2.00;99.90;;;;;;5036374;28;20112;-74
2023/03/05 07:08:04;;;;;;;4.70;1.35;;;2.00;99.90;;;;;;5041939;28;20037;-73
2023/03/05 07:10:30;;;;;;;4.97;1.67;;;2.00;99.90;;;;;;5039596;28;20037;-71
2023/03/05 07:12:56;;;;;;;6.75;1.77;;;2.00;99.90;;;;;;5042178;28;20026;-74
2023/03/05 07:15:21;;;;;;;8.77;1.58;;;2.00;99.90;;;;;;5032516;28;20044;-72
2023/03/05 07:17:47;;;;;;;6.18;1.83;;;1.90;99.90;;;;;;5033848;28;20040;-75
2023/03/05 07:20:13;;;;;;;6.63;1.77;;;1.90;99.90;;;;;;5050709;28;20124;-73
2023/03/05 07:22:39;;;;;;;6.35;2.08;;;2.00;99.90;;;;;;5033674;28;20037;-70
2023/03/05 07:25:05;;;;;;;8.00;2.17;;;2.00;99.90;;;;;;5038472;28;20548;-73
2023/03/05 07:27:35;;;;;;;7.78;2.22;;;2.00;99.90;;;;;;5034612;28;20041;-72
2023/03/05 07:30:00;;;;;;;9.60;2.30;;;2.10;99.90;;;;;;5043242;28;20033;-74
2023/03/05 07:32:26;;;;;;;9.30;2.03;;;2.20;99.90;;;;;;5039739;28;20037;-75
2023/03/05 07:34:51;;;;;;;5.63;1.88;;;2.30;99.90;;;;;;5042848;28;20029;-74
2023/03/05 07:37:17;;;;;;;14.13;1.95;;;2.30;99.90;;;;;;5041420;28;20014;-73
2023/03/05 07:39:43;;;;;;;10.27;1.90;;;2.30;99.90;;;;;;5041659;28;20041;-70
2023/03/05 07:42:08;;;;;;;8.77;2.30;;;2.40;99.90;;;;;;5043958;28;20068;-72
2023/03/05 07:44:34;;;;;;;8.57;1.92;;;2.40;99.90;;;;;;5042339;28;20044;-73
2023/03/05 07:47:00;;;;;;;9.10;1.58;;;2.40;99.90;;;;;;5041303;28;20033;-74
2023/03/05 07:49:26;;;;;;;9.93;2.10;;;2.40;99.90;;;;;;5042431;28;20030;-72
2023/03/05 07:51:51;;;;;;;14.93;1.60;;;2.40;99.90;;;;;;5042431;28;20025;-74
2023/03/05 07:54:17;;;;;;;5.47;1.70;;;2.40;99.90;;;;;;5041548;28;20024;-73
2023/03/05 07:56:42;;;;;;;8.82;1.67;;;2.40;99.90;;;;;;5043591;28;20033;-71
2023/03/05 07:59:11;;;;;;;7.10;1.48;;;2.40;99.90;;;;;;5042725;28;20029;-74
2023/03/05 08:01:37;;;;;;;4.90;0.90;;;2.40;99.90;;;;;;5043480;28;20057;-74
2023/03/05 08:04:04;;;;;;;3.67;1.15;;;2.50;99.90;;;;;;5040924;28;20029;-73
2023/03/05 08:06:30;;;;;;;6.65;1.67;;;2.50;99.90;;;;;;5043250;28;20151;-72
2023/03/05 08:08:57;;;;;;;7.35;1.10;;;2.60;99.90;;;;;;5042092;28;20540;-73
2023/03/05 08:11:23;;;;;;;4.47;1.20;;;2.70;99.90;;;;;;5041450;28;20030;-73
2023/03/05 08:13:49;;;;;;;6.68;1.20;;;2.70;99.90;;;;;;5039293;28;20056;-74
2023/03/05 08:16:17;;;;;;;7.63;1.70;;;2.70;99.90;;;;;;5043463;28;20029;-74
2023/03/05 08:18:43;;;;;;;4.47;1.17;;;2.80;99.90;;;;;;5041218;28;20028;-73
2023/03/05 08:21:32;;;;;;;6.60;1.30;;;2.80;99.90;;;;;;5041360;28;20041;-73
2023/03/05 08:23:59;;;;;;;6.55;1.33;;;2.80;99.90;;;;;;5042655;28;20028;-71
2023/03/05 08:26:29;;;;;;;5.28;1.30;;;2.90;99.90;;;;;;5040514;28;20060;-72
2023/03/05 08:28:55;;;;;;;5.07;1.15;;;3.10;99.90;;;;;;5042850;28;20024;-74
2023/03/05 08:31:21;;;;;;;4.72;1.25;;;3.20;99.90;;;;;;5041384;28;20438;-74
2023/03/05 08:33:52;;;;;;;8.85;1.50;;;3.40;99.90;;;;;;5041099;28;20151;-72
2023/03/05 08:36:18;;;;;;;7.30;1.45;;;3.60;99.90;;;;;;5042608;28;20021;-71
2023/03/05 08:38:45;;;;;;;7.20;1.23;;;3.60;99.90;;;;;;5038558;28;20053;-74
2023/03/05 08:41:11;;;;;;;5.82;1.15;;;3.60;99.90;;;;;;5040747;28;20025;-71
2023/03/05 08:43:37;;;;;;;6.55;1.20;;;3.60;99.90;;;;;;5048505;28;20013;-70
2023/03/05 08:46:03;;;;;;;8.30;1.50;;;3.70;99.90;;;;;;5041046;28;20112;-73
2023/03/05 08:48:30;;;;;;;3.90;1.10;;;3.80;99.90;;;;;;5041282;28;20414;-73
2023/03/05 08:50:56;;;;;;;4.97;1.20;;;3.80;99.90;;;;;;5042491;28;20020;-71
2023/03/05 08:53:22;;;;;;;8.85;1.23;;;3.90;99.90;;;;;;5040476;28;20032;-73
2023/03/05 08:55:57;;;;;;;5.28;1.25;;;3.90;99.90;;;;;;5037022;28;20025;-72
2023/03/05 08:58:23;;;;;;;10.68;1.13;;;4.00;99.90;;;;;;5030254;28;20089;-73
2023/03/05 09:00:49;;;;;;;5.70;1.30;;;4.10;99.90;;;;;;5031058;28;21646;-72
2023/03/05 09:03:15;;;;;;;9.88;1.13;;;4.20;99.90;;;;;;5031994;28;20125;-74
2023/03/05 09:05:40;;;;;;;5.40;1.08;;;4.20;99.90;;;;;;5040337;28;20046;-69
2023/03/05 09:08:06;;;;;;;5.13;0.90;;;4.20;99.90;;;;;;5041908;28;20029;-72
2023/03/05 09:10:31;;;;;;;4.30;0.88;;;4.20;99.90;;;;;;5038515;28;20061;-72
2023/03/05 09:12:57;;;;;;;2.70;0.80;;;4.10;99.90;;;;;;5042040;28;20097;-73
2023/03/05 09:15:23;;;;;;;4.45;0.85;;;4.20;99.90;;;;;;5040870;28;20033;-74
2023/03/05 09:17:48;;;;;;;5.85;1.17;;;4.20;99.90;;;;;;5040648;28;20018;-71
2023/03/05 09:20:15;;;;;;;6.78;1.10;;;4.20;99.90;;;;;;5041938;28;20033;-75
2023/03/05 09:22:41;;;;;;;7.80;1.02;;;4.10;99.90;;;;;;5040449;28;20035;-73
2023/03/05 09:25:08;;;;;;;8.20;1.02;;;4.20;99.90;;;;;;5040796;28;20088;-73
2023/03/05 09:27:35;;;;;;;3.17;1.02;;;4.20;99.90;;;;;;5039603;28;20045;-73
2023/03/05 09:30:01;;;;;;;7.75;1.38;;;4.10;99.90;;;;;;5040309;28;20038;-71
2023/03/05 09:32:26;;;;;;;2.58;0.98;;;4.30;99.90;;;;;;5041622;28;20047;-70
2023/03/05 09:34:52;;;;;;;2.55;0.90;;;4.20;99.90;;;;;;5039494;28;20025;-74
2023/03/05 09:37:17;;;;;;;6.13;1.50;;;4.30;99.90;;;;;;5039920;28;20029;-72
2023/03/05 09:39:43;;;;;;;6.60;1.10;;;4.60;99.90;;;;;;5041016;28;20085;-73
2023/03/05 09:42:40;;;;;;;11.18;1.25;;;4.80;99.90;;;;;;5039172;28;20156;-74
2023/03/05 09:45:38;;;;;;;5.43;1.02;;;5.10;99.90;;;;;;5040280;28;20025;-73
2023/03/05 09:48:23;;;;;;;7.57;1.63;;;5.40;99.90;;;;;;5040342;28;20026;-72
2023/03/05 09:51:00;;;;;;;7.75;1.10;;;5.70;99.90;;;;;;5037978;28;20033;-72
2023/03/05 09:53:47;;;;;;;7.95;1.05;;;5.90;99.90;;;;;;5040663;28;20032;-71
2023/03/05 09:56:19;;;;;;;3.80;0.90;;;5.70;99.90;;;;;;5037701;28;20030;-72
2023/03/05 09:58:49;;;;;;;4.43;0.90;;;5.60;99.90;;;;;;5036799;28;20029;-73
2023/03/05 10:01:28;;;;;;;4.72;0.88;;;5.60;99.90;;;;;;5036692;28;20041;-70
2023/03/05 10:04:09;;;;;;;4.40;1.13;;;5.60;99.90;;;;;;5039152;28;20041;-71
2023/03/05 10:06:40;;;;;;;10.18;1.20;;;5.70;99.90;;;;;;5036556;28;20402;-70
2023/03/05 10:09:09;;;;;;;4.00;0.70;;;5.70;99.90;;;;;;5035955;28;20030;-69
2023/03/05 10:12:02;;;;;;;6.65;1.17;;;5.90;99.90;;;;;;5039231;28;20030;-70
2023/03/05 10:14:38;;;;;;;9.00;1.27;;;6.30;99.90;;;;;;5037662;28;20045;-70
2023/03/05 10:17:04;;;;;;;3.00;0.82;;;6.80;99.90;;;;;;5038445;28;20029;-72
2023/03/05 10:19:50;;;;;;;4.82;0.85;;;6.80;99.90;;;;;;5037157;28;21026;-72
2023/03/05 10:22:29;;;;;;;6.25;1.27;;;6.60;99.90;;;;;;5039451;28;20046;-73
2023/03/05 10:25:01;;;;;;;4.97;1.17;;;6.50;99.90;;;;;;5039350;28;20025;-72
2023/03/05 10:27:48;;;;;;;9.68;1.38;;;6.40;99.90;;;;;;5037698;28;20087;-71
2023/03/05 10:30:31;;;;;;;6.75;1.10;;;6.20;99.90;;;;;;5039686;28;20075;-72
2023/03/05 10:33:05;;;;;;;3.35;0.80;;;6.00;99.90;;;;;;5040239;28;20022;-71
2023/03/05 10:35:52;;;;;;;3.85;0.70;;;6.00;99.90;;;;;;5039361;28;20033;-71
2023/03/05 10:38:35;;;;;;;4.80;0.80;;;5.90;99.90;;;;;;5038325;28;20034;-72
2023/03/05 10:41:36;;;;;;;8.53;1.30;;;6.30;99.90;;;;;;5040704;28;20044;-72
2023/03/05 10:44:30;;;;;;;5.20;1.20;;;6.60;99.90;;;;;;5047756;28;20132;-72
2023/03/05 10:46:57;;;;;;;1.48;0.70;;;6.60;99.90;;;;;;5037091;28;20048;-73
2023/03/05 10:49:31;;;;;;;2.95;0.70;;;6.70;99.90;;;;;;5035144;28;20029;-72
2023/03/05 10:52:19;;;;;;;4.68;0.93;;;6.90;99.90;;;;;;5043103;28;20052;-72
2023/03/05 10:54:44;;;;;;;1.50;0.60;;;6.90;99.90;;;;;;5040914;28;20025;-70
2023/03/05 10:57:36;;;;;;;5.22;0.60;;;6.80;99.90;;;;;;5040970;28;20093;-73
2023/03/05 11:00:04;;;;;;;7.75;0.73;;;6.80;99.90;;;;;;5042793;28;20056;-70
2023/03/05 11:02:30;;;;;;;3.50;0.70;;;6.80;99.90;;;;;;5041816;28;20033;-71
2023/03/05 11:04:55;;;;;;;6.13;0.95;;;6.60;99.90;;;;;;5041630;28;20079;-71
2023/03/05 11:07:21;;;;;;;7.68;0.85;;;6.50;99.90;;;;;;5042745;28;20122;-71
2023/03/05 11:09:59;;;;;;;5.53;1.08;;;6.50;99.90;;;;;;5042759;28;20033;-73
2023/03/05 11:12:36;;;;;;;5.78;0.90;;;6.40;99.90;;;;;;5043823;28;20029;-69
2023/03/05 11:15:08;;;;;;;6.82;1.58;;;6.30;99.90;;;;;;5040253;28;20033;-69
2023/03/05 11:17:47;;;;;;;2.83;0.90;;;6.20;99.90;;;;;;5041449;28;20466;-70
2023/03/05 11:20:25;;;;;;;2.45;0.60;;;6.40;99.90;;;;;;5043589;28;20057;-71
2023/03/05 11:23:03;;;;;;;2.60;0.70;;;6.50;99.90;;;;;;5041574;28;20098;-71
2023/03/05 11:25:30;;;;;;;3.00;1.02;;;6.50;99.90;;;;;;5042131;28;20393;-71
2023/03/05 11:27:57;;;;;;;4.82;1.10;;;6.60;99.90;;;;;;5040980;28;20049;-72
2023/03/05 11:30:34;;;;;;;4.32;1.60;;;6.70;99.90;;;;;;5039548;28;20711;-71
2023/03/05 11:33:29;;;;;;;4.10;1.00;;;6.80;99.90;;;;;;5038213;28;20029;-72
2023/03/05 11:36:22;;;;;;;6.88;0.98;;;7.00;99.90;;;;;;5037583;28;20052;-69
2023/03/05 11:38:53;;;;;;;9.00;1.40;;;7.20;99.90;;;;;;5038587;28;20030;-71
2023/03/05 11:41:28;;;;;;;5.32;1.98;;;7.50;99.90;;;;;;5040735;28;20087;-72
2023/03/05 11:43:54;;;;;;;5.15;0.77;;;8.00;99.90;;;;;;5041549;28;20021;-70
2023/03/05 11:46:21;;;;;;;3.00;2.08;;;8.30;99.90;;;;;;5042251;28;20470;-73
2023/03/05 11:48:47;;;;;;;4.97;1.88;;;8.70;99.90;;;;;;5041521;28;20092;-71
2023/03/05 11:51:22;;;;;;;3.42;0.73;;;9.10;99.90;;;;;;5042546;28;20025;-69
2023/03/05 11:53:54;;;;;;;2.40;1.20;;;9.50;99.90;;;;;;5041902;28;20112;-70
2023/03/05 11:56:25;;;;;;;12.05;5.85;;;9.70;99.90;;;;;;5041706;28;20041;-70
2023/03/05 11:59:00;;;;;;;2.92;1.20;;;10.00;99.90;;;;;;5043236;28;20053;-73
2023/03/05 12:01:32;;;;;;;5.55;1.95;;;10.30;99.90;;;;;;5042888;28;20028;-70
2023/03/05 12:03:58;;;;;;;3.45;0.70;;;10.60;99.90;;;;;;5038857;28;20479;-71
2023/03/05 12:06:24;;;;;;;4.07;0.93;;;10.50;99.90;;;;;;5039414;28;20093;-71
2023/03/05 12:08:55;;;;;;;5.60;1.08;;;10.40;99.90;;;;;;5043300;28;20030;-70
2023/03/05 12:11:32;;;;;;;3.15;0.70;;;10.10;99.90;;;;;;5040888;28;20039;-71
2023/03/05 12:14:03;;;;;;;2.55;0.82;;;9.80;99.90;;;;;;5039063;28;20116;-68
2023/03/05 12:16:49;;;;;;;5.47;0.60;;;9.20;99.90;;;;;;5041631;28;20025;-72
2023/03/05 12:19:24;;;;;;;2.95;0.60;;;8.70;99.90;;;;;;5042958;28;20032;-71
2023/03/05 12:21:51;;;;;;;3.65;1.20;;;7.90;99.90;;;;;;5041655;28;20091;-71
2023/03/05 12:24:23;;;;;;;5.75;1.17;;;7.40;99.90;;;;;;5042533;28;20033;-72
2023/03/05 12:26:58;;;;;;;7.20;1.40;;;7.10;99.90;;;;;;5041360;28;20064;-72
2023/03/05 12:29:28;;;;;;;6.22;1.20;;;6.80;99.90;;;;;;5042853;28;20096;-70
2023/03/05 12:31:54;;;;;;;5.95;1.00;;;6.70;99.90;;;;;;5042370;28;20558;-70
2023/03/05 12:34:45;;;;;;;3.35;0.52;;;7.20;99.90;;;;;;5042632;28;20022;-72
2023/03/05 12:37:22;;;;;;;4.22;0.60;;;8.20;99.90;;;;;;5040554;28;20037;-71
2023/03/05 12:39:56;;;;;;;4.20;0.90;;;8.80;99.90;;;;;;5042898;28;20099;-70
2023/03/05 12:42:27;;;;;;;2.15;0.65;;;9.40;99.90;;;;;;5042686;28;20057;-70
2023/03/05 12:45:08;;;;;;;3.30;0.70;;;9.90;99.90;;;;;;5038024;28;20068;-70
2023/03/05 12:47:34;;;;;;;5.13;0.63;;;10.20;99.90;;;;;;5042149;28;20037;-71
2023/03/05 12:50:00;;;;;;;7.32;0.75;;;10.50;99.90;;;;;;5041963;28;20030;-69
2023/03/05 12:52:30;;;;;;;2.63;0.68;;;10.60;99.90;;;;;;5041362;28;20378;-69
2023/03/05 12:55:36;;;;;;;4.57;0.80;;;10.40;99.90;;;;;;5040772;28;20044;-68
2023/03/05 12:58:32;;;;;;;3.35;0.57;;;10.10;99.90;;;;;;5041476;28;20026;-68
2023/03/05 13:01:04;;;;;;;5.20;0.90;;;9.80;99.90;;;;;;5054373;28;20058;-70
2023/03/05 13:03:34;;;;;;;3.53;0.93;;;9.60;99.90;;;;;;5040724;28;20410;-70